Time;durP1;ratioP1;P1;durP2;ratioP2;P2;SDS_P1;SDS_P2;PMS_P1;PMS_P2;Temp;Humidity;BMP_temperature;BMP_pressure;BME280_temperature;BME280_humidity;BME280_pressure;Samples;Min_cycle;Max_cycle;Signal;HPM_P1;HPM_P2
2022/05/02 00:01:53;;;;;;;;;;;15.00;99.90;;;;;;5013741;28;19944;-73
2022/05/02 00:04:18;;;;;;;;;;;14.90;99.90;;;;;;5010662;28;19920;-71
2022/05/02 00:06:44;;;;;;;;;;;14.90;99.90;;;;;;5010940;28;19909;-72
2022/05/02 00:09:09;;;;;;;;;;;14.90;99.90;;;;;;5024753;28;19917;-73
2022/05/02 00:11:35;;;;;;;;;;;14.90;99.90;;;;;;5010172;28;19909;-71
2022/05/02 00:14:00;;;;;;;;;;;15.00;99.90;;;;;;5010925;28;19959;-74
2022/05/02 00:16:26;;;;;;;;;;;15.00;99.90;;;;;;5010959;28;19910;-71
2022/05/02 00:18:52;;;;;;;;;;;14.90;99.90;;;;;;5012238;28;19935;-72
2022/05/02 00:21:17;;;;;;;;;;;14.90;99.90;;;;;;5010254;28;20016;-72
2022/05/02 00:23:43;;;;;;;;;;;14.80;99.90;;;;;;5004824;28;19913;-71
2022/05/02 00:26:09;;;;;;;;;;;14.80;99.90;;;;;;5005784;28;19920;-72
2022/05/02 00:28:34;;;;;;;;;;;14.80;99.90;;;;;;5003253;28;19910;-73
2022/05/02 00:31:00;;;;;;;;;;;14.70;99.90;;;;;;5004055;28;20521;-72
2022/05/02 00:33:26;;;;;;;;;;;14.70;99.90;;;;;;5004982;28;19956;-71
2022/05/02 00:35:51;;;;;;;;;;;14.60;99.90;;;;;;5009458;28;19944;-71
2022/05/02 00:38:17;;;;;;;;;;;14.60;99.90;;;;;;5010975;28;19979;-72
2022/05/02 00:40:42;;;;;;;;;;;14.60;99.90;;;;;;5019543;28;19916;-71
2022/05/02 00:43:08;;;;;;;;;;;14.50;99.90;;;;;;5027084;28;19910;-70
2022/05/02 00:45:37;;;;;;;;;;;14.50;99.90;;;;;;5012894;28;19912;-71
2022/05/02 00:48:03;;;;;;;;;;;14.50;99.90;;;;;;5012883;28;20403;-72
2022/05/02 00:50:36;;;;;;;;;;;14.50;99.90;;;;;;5012582;28;19949;-72
2022/05/02 00:53:04;;;;;;;;;;;14.50;99.90;;;;;;5012470;28;20505;-72
2022/05/02 00:55:30;;;;;;;;;;;14.50;99.90;;;;;;5009625;28;19914;-71
2022/05/02 00:57:58;;;;;;;;;;;14.40;99.90;;;;;;5010375;28;19910;-71
2022/05/02 01:00:23;;;;;;;;;;;14.30;99.90;;;;;;5006512;28;20258;-71
2022/05/02 01:02:49;;;;;;;;;;;14.20;99.90;;;;;;5009634;28;19919;-73
2022/05/02 01:05:14;;;;;;;;;;;14.10;99.90;;;;;;5011624;28;19913;-71
2022/05/02 01:07:41;;;;;;;;;;;14.10;99.90;;;;;;5009018;28;19909;-71
2022/05/02 01:10:06;;;;;;;;;;;14.10;99.90;;;;;;5009124;28;20748;-71
2022/05/02 01:12:32;;;;;;;;;;;14.00;99.90;;;;;;5008991;28;19913;-75
2022/05/02 01:14:58;;;;;;;;;;;14.00;99.90;;;;;;5011694;28;19906;-71
2022/05/02 01:17:24;;;;;;;;;;;13.90;99.90;;;;;;5011374;28;19913;-70
2022/05/02 01:19:50;;;;;;;;;;;13.90;99.90;;;;;;5010190;28;19949;-70
2022/05/02 01:22:16;;;;;;;;;;;13.90;99.90;;;;;;5008916;28;19967;-70
2022/05/02 01:24:43;;;;;;;;;;;14.00;99.90;;;;;;5010878;28;19908;-72
2022/05/02 01:27:09;;;;;;;;;;;14.10;99.90;;;;;;5010722;28;19913;-72
2022/05/02 01:29:36;;;;;;;;;;;14.10;99.90;;;;;;5009397;28;19963;-71
2022/05/02 01:32:06;;;;;;;;;;;14.00;99.90;;;;;;5009569;28;19909;-73
2022/05/02 01:34:32;;;;;;;;;;;14.20;99.90;;;;;;5011357;28;20210;-71
2022/05/02 01:36:58;;;;;;;;;;;14.20;99.90;;;;;;5007040;28;19913;-74
2022/05/02 01:39:23;;;;;;;;;;;14.20;99.90;;;;;;5007524;28;19959;-71
2022/05/02 01:41:49;;;;;;;;;;;14.20;99.90;;;;;;5006608;28;19960;-72
2022/05/02 01:44:15;;;;;;;;;;;14.20;99.90;;;;;;5008023;28;20553;-72
2022/05/02 01:46:40;;;;;;;;;;;14.20;99.90;;;;;;5011125;28;20476;-73
2022/05/02 01:49:07;;;;;;;;;;;14.10;99.90;;;;;;5008419;28;19909;-74
2022/05/02 01:51:32;;;;;;;;;;;14.20;99.90;;;;;;5009500;28;19957;-77
2022/05/02 01:53:58;;;;;;;;;;;14.20;99.90;;;;;;5009034;28;19924;-71
2022/05/02 01:56:24;;;;;;;;;;;14.30;99.90;;;;;;5005857;28;20512;-71
2022/05/02 01:58:49;;;;;;;;;;;14.10;99.90;;;;;;5007449;28;19914;-72
2022/05/02 02:01:15;;;;;;;;;;;14.10;99.90;;;;;;5009395;28;19913;-74
2022/05/02 02:03:40;;;;;;;;;;;14.10;99.90;;;;;;5008422;28;19910;-70
2022/05/02 02:06:06;;;;;;;;;;;14.00;99.90;;;;;;5009573;28;19927;-70
2022/05/02 02:08:32;;;;;;;;;;;14.10;99.90;;;;;;5007555;28;20354;-71
2022/05/02 02:10:59;;;;;;;;;;;14.10;99.90;;;;;;5009636;28;19909;-71
2022/05/02 02:13:25;;;;;;;;;;;14.20;99.90;;;;;;5008618;28;19910;-71
2022/05/02 02:15:50;;;;;;;;;;;14.20;99.90;;;;;;5009620;28;20404;-72
2022/05/02 02:18:16;;;;;;;;;;;14.20;99.90;;;;;;5008281;28;19963;-74
2022/05/02 02:20:42;;;;;;;;;;;14.10;99.90;;;;;;5006929;28;20092;-71
2022/05/02 02:23:08;;;;;;;;;;;14.20;99.90;;;;;;5008071;28;19917;-71
2022/05/02 02:25:36;;;;;;;;;;;14.10;99.90;;;;;;5008019;28;19979;-73
2022/05/02 02:28:01;;;;;;;;;;;14.20;99.90;;;;;;5009218;28;19955;-73
2022/05/02 02:30:30;;;;;;;;;;;14.30;99.90;;;;;;5007861;28;19909;-71
2022/05/02 02:32:56;;;;;;;;;;;14.30;99.90;;;;;;5008340;28;20037;-72
2022/05/02 02:35:22;;;;;;;;;;;14.40;99.90;;;;;;5003094;28;19928;-72
2022/05/02 02:37:48;;;;;;;;;;;14.30;99.90;;;;;;5008629;28;19905;-72
2022/05/02 02:40:14;;;;;;;;;;;14.40;99.90;;;;;;5007275;28;19936;-71
2022/05/02 02:42:40;;;;;;;;;;;14.50;99.90;;;;;;5009989;28;19913;-73
2022/05/02 02:45:05;;;;;;;;;;;14.50;99.90;;;;;;5008777;28;19928;-72
2022/05/02 02:47:31;;;;;;;;;;;14.50;99.90;;;;;;5008603;28;19951;-71
2022/05/02 02:49:57;;;;;;;;;;;14.40;99.90;;;;;;5007840;28;20012;-71
2022/05/02 02:52:22;;;;;;;;;;;14.40;99.90;;;;;;5009401;28;20396;-72
2022/05/02 02:54:48;;;;;;;;;;;14.40;99.90;;;;;;5008379;28;19955;-73
2022/05/02 02:57:13;;;;;;;;;;;14.30;99.90;;;;;;5009483;28;19916;-71
2022/05/02 02:59:39;;;;;;;;;;;14.30;99.90;;;;;;5006624;28;21957;-73
2022/05/02 03:02:08;;;;;;;;;;;14.30;99.90;;;;;;5006769;28;20281;-72
2022/05/02 03:07:19;;;;;;;;;;;14.20;99.90;;;;;;5008795;28;20385;-73
2022/05/02 03:09:45;;;;;;;;;;;14.20;99.90;;;;;;5009720;28;19909;-75
2022/05/02 03:12:10;;;;;;;;;;;14.20;99.90;;;;;;5008941;28;20004;-71
2022/05/02 03:14:36;;;;;;;;;;;14.20;99.90;;;;;;5008327;28;19991;-72
2022/05/02 03:17:02;;;;;;;;;;;14.10;99.90;;;;;;5006877;28;19910;-72
2022/05/02 03:19:27;;;;;;;;;;;14.10;99.90;;;;;;5007846;28;20364;-72
2022/05/02 03:21:53;;;;;;;;;;;14.00;99.90;;;;;;5007133;28;19913;-73
2022/05/02 03:24:19;;;;;;;;;;;14.00;99.90;;;;;;5006144;28;19913;-72
2022/05/02 03:26:44;;;;;;;;;;;14.10;99.90;;;;;;5009817;28;19917;-71
2022/05/02 03:29:10;;;;;;;;;;;14.10;99.90;;;;;;5006061;28;20004;-71
2022/05/02 03:31:35;;;;;;;;;;;14.10;99.90;;;;;;5006949;28;20271;-73
2022/05/02 03:34:01;;;;;;;;;;;14.10;99.90;;;;;;5006917;28;19989;-73
2022/05/02 03:36:27;;;;;;;;;;;14.10;99.90;;;;;;5007703;28;20369;-72
2022/05/02 03:38:52;;;;;;;;;;;14.10;99.90;;;;;;5000108;28;20047;-72
2022/05/02 03:41:18;;;;;;;;;;;14.10;99.90;;;;;;5008743;28;19924;-72
2022/05/02 03:43:44;;;;;;;;;;;14.10;99.90;;;;;;5005760;28;19912;-74
2022/05/02 03:46:09;;;;;;;;;;;14.10;99.90;;;;;;5005967;28;19912;-71
2022/05/02 03:48:35;;;;;;;;;;;14.20;99.90;;;;;;5007509;28;19932;-71
2022/05/02 03:51:01;;;;;;;;;;;14.20;99.90;;;;;;5007666;28;19906;-75
2022/05/02 03:53:26;;;;;;;;;;;14.20;99.90;;;;;;5005938;28;19909;-73
2022/05/02 03:55:52;;;;;;;;;;;14.10;99.90;;;;;;5007344;28;20000;-72
2022/05/02 03:58:18;;;;;;;;;;;14.10;99.90;;;;;;5007239;28;19947;-75
2022/05/02 04:00:43;;;;;;;;;;;14.20;99.90;;;;;;5008181;28;20404;-72
2022/05/02 04:03:10;;;;;;;;;;;14.20;99.90;;;;;;5008425;28;19992;-72
2022/05/02 04:05:35;;;;;;;;;;;14.20;99.90;;;;;;5011188;28;20005;-73
2022/05/02 04:08:01;;;;;;;;;;;14.20;99.90;;;;;;5011651;28;19905;-71
2022/05/02 04:10:27;;;;;;;;;;;14.10;99.90;;;;;;5010888;28;20293;-72
2022/05/02 04:12:52;;;;;;;;;;;14.20;99.90;;;;;;5014608;28;19920;-72
2022/05/02 04:15:18;;;;;;;;;;;14.20;99.90;;;;;;5015579;28;19915;-74
2022/05/02 04:17:44;;;;;;;;;;;14.20;99.90;;;;;;5013969;28;19996;-72
2022/05/02 04:20:10;;;;;;;;;;;14.30;99.90;;;;;;5011173;28;20378;-70
2022/05/02 04:22:36;;;;;;;;;;;14.30;99.90;;;;;;5011723;28;19957;-72
2022/05/02 04:25:02;;;;;;;;;;;14.30;99.90;;;;;;5010819;28;19905;-72
2022/05/02 04:27:28;;;;;;;;;;;14.30;99.90;;;;;;5010529;28;19917;-72
2022/05/02 04:29:54;;;;;;;;;;;14.20;99.90;;;;;;5013123;28;19959;-71
2022/05/02 04:32:19;;;;;;;;;;;14.30;99.90;;;;;;5011488;28;20007;-72
2022/05/02 04:34:45;;;;;;;;;;;14.20;99.90;;;;;;5011202;28;19910;-75
2022/05/02 04:37:11;;;;;;;;;;;14.20;99.90;;;;;;5008123;28;19913;-73
2022/05/02 04:39:37;;;;;;;;;;;14.20;99.90;;;;;;5014912;28;19912;-72
2022/05/02 04:42:03;;;;;;;;;;;14.30;99.90;;;;;;5014602;28;19914;-71
2022/05/02 04:44:31;;;;;;;;;;;14.30;99.90;;;;;;5016014;28;19981;-71
2022/05/02 04:46:57;;;;;;;;;;;14.40;99.90;;;;;;5016024;28;20001;-74
2022/05/02 04:49:22;;;;;;;;;;;14.30;99.90;;;;;;5013864;28;19944;-74
2022/05/02 04:51:48;;;;;;;;;;;14.30;99.90;;;;;;5014128;28;20293;-74
2022/05/02 04:54:14;;;;;;;;;;;14.40;99.90;;;;;;5007905;28;19910;-73
2022/05/02 04:56:39;;;;;;;;;;;14.40;99.90;;;;;;5009874;28;19909;-71
2022/05/02 04:59:05;;;;;;;;;;;14.40;99.90;;;;;;5011802;28;19909;-71
2022/05/02 05:01:31;;;;;;;;;;;14.40;99.90;;;;;;5010747;28;19914;-73
2022/05/02 05:03:56;;;;;;;;;;;14.40;99.90;;;;;;5010180;28;20293;-72
2022/05/02 05:06:22;;;;;;;;;;;14.40;99.90;;;;;;5012106;28;19913;-73
2022/05/02 05:08:48;;;;;;;;;;;14.30;99.90;;;;;;5010079;28;20326;-72
2022/05/02 05:11:34;;;;;;;;;;;14.40;99.90;;;;;;5007988;28;20009;-72
2022/05/02 05:16:56;;;;;;;;;;;14.40;99.90;;;;;;5010451;28;19979;-72
2022/05/02 05:19:28;;;;;;;;;;;14.40;99.90;;;;;;5011608;28;19913;-70
2022/05/02 05:22:14;;;;;;;;;;;14.40;99.90;;;;;;5010288;28;19920;-73
2022/05/02 05:24:52;;;;;;;;;;;14.50;99.90;;;;;;5007972;28;20377;-74
2022/05/02 05:27:21;;;;;;;;;;;14.50;99.90;;;;;;5008839;28;19909;-72
2022/05/02 05:29:52;;;;;;;;;;;14.50;99.90;;;;;;5010181;28;20052;-73
2022/05/02 05:32:27;;;;;;;;;;;14.50;99.90;;;;;;5008920;28;19936;-73
2022/05/02 05:34:53;;;;;;;;;;;14.60;99.90;;;;;;5009226;28;19913;-74
2022/05/02 05:37:35;;;;;;;;;;;14.70;99.90;;;;;;5009359;28;20392;-72
2022/05/02 05:40:16;;;;;;;;;;;14.70;99.90;;;;;;5006187;28;19960;-72
2022/05/02 05:42:45;;;;;;;;;;;14.70;99.90;;;;;;5009773;28;20350;-72
2022/05/02 05:45:13;;;;;;;;;;;14.60;99.90;;;;;;5008823;28;19967;-71
2022/05/02 05:47:57;;;;;;;;;;;14.60;99.90;;;;;;5011173;28;20297;-74
2022/05/02 05:50:24;;;;;;;;;;;14.70;99.90;;;;;;5011013;28;19909;-75
2022/05/02 05:53:09;;;;;;;;;;;14.80;99.90;;;;;;5008625;28;19909;-72
2022/05/02 05:55:37;;;;;;;;;;;14.90;99.90;;;;;;5010240;28;19958;-72
2022/05/02 05:58:14;;;;;;;;;;;15.10;99.90;;;;;;5010650;28;20337;-72
2022/05/02 06:00:50;;;;;;;;;;;15.20;99.90;;;;;;5008802;28;19932;-75
2022/05/02 06:03:17;;;;;;;;;;;15.30;99.90;;;;;;5009631;28;19957;-75
2022/05/02 06:05:46;;;;;;;;;;;15.40;99.90;;;;;;5009172;28;20293;-73
2022/05/02 06:08:15;;;;;;;;;;;15.40;99.90;;;;;;5008491;28;19909;-74
2022/05/02 06:10:42;;;;;;;;;;;15.50;99.90;;;;;;5005571;28;20364;-74
2022/05/02 06:13:08;;;;;;;;;;;15.60;99.90;;;;;;5008944;28;19952;-71
2022/05/02 06:18:29;;;;;;;;;;;15.60;99.90;;;;;;5011137;28;19976;-71
2022/05/02 06:21:02;;;;;;;;;;;15.60;99.90;;;;;;5007364;28;20348;-73
2022/05/02 06:23:31;;;;;;;;;;;15.60;99.90;;;;;;5007283;28;20574;-74
2022/05/02 06:25:57;;;;;;;;;;;15.60;99.90;;;;;;5011556;28;19905;-75
2022/05/02 06:28:25;;;;;;;;;;;15.70;99.90;;;;;;5009321;28;19913;-77
2022/05/02 06:30:53;;;;;;;;;;;15.80;99.90;;;;;;5001746;28;19910;-73
2022/05/02 06:33:20;;;;;;;;;;;15.80;99.90;;;;;;5010691;28;19990;-76
2022/05/02 06:36:15;;;;;;;;;;;15.80;99.90;;;;;;5008359;28;19920;-72
2022/05/02 06:38:41;;;;;;;;;;;15.90;99.90;;;;;;5021584;28;19905;-73
2022/05/02 06:41:14;;;;;;;;;;;16.10;99.90;;;;;;5011194;28;20397;-72
2022/05/02 06:43:39;;;;;;;;;;;16.10;99.90;;;;;;5013236;28;20363;-73
2022/05/02 06:46:18;;;;;;;;;;;16.20;99.90;;;;;;5010300;28;19909;-77
2022/05/02 06:48:55;;;;;;;;;;;16.20;99.90;;;;;;5009593;28;20004;-73
2022/05/02 06:51:36;;;;;;;;;;;16.20;99.90;;;;;;5009801;28;19906;-72
2022/05/02 06:54:20;;;;;;;;;;;16.20;99.90;;;;;;5011281;28;19932;-77
2022/05/02 06:56:50;;;;;;;;;;;16.30;99.90;;;;;;5009971;28;19936;-73
2022/05/02 06:59:34;;;;;;;;;;;16.50;99.90;;;;;;5009269;28;19909;-74
2022/05/02 07:02:12;;;;;;;;;;;16.70;99.90;;;;;;5004839;28;19920;-73
2022/05/02 07:04:44;;;;;;;;;;;16.70;99.90;;;;;;5013250;28;20247;-74
2022/05/02 07:07:21;;;;;;;;;;;16.60;99.90;;;;;;5010304;28;20383;-73
2022/05/02 07:09:52;;;;;;;;;;;16.70;99.90;;;;;;5011008;28;19917;-73
2022/05/02 07:12:24;;;;;;;;;;;16.80;99.90;;;;;;5007168;28;20008;-71
2022/05/02 07:14:53;;;;;;;;;;;16.70;99.90;;;;;;5010637;28;19935;-72
2022/05/02 07:17:27;;;;;;;;;;;16.80;99.90;;;;;;5007015;28;19913;-69
2022/05/02 07:20:12;;;;;;;;;;;16.80;99.90;;;;;;5005662;28;20014;-69
2022/05/02 07:22:53;;;;;;;;;;;16.90;99.90;;;;;;5009046;28;19913;-74
2022/05/02 07:25:22;;;;;;;;;;;16.80;99.90;;;;;;5005840;28;19959;-70
2022/05/02 07:28:06;;;;;;;;;;;16.90;99.90;;;;;;5007589;28;20004;-70
2022/05/02 07:30:32;;;;;;;;;;;17.00;99.90;;;;;;5006145;28;19909;-72
2022/05/02 07:33:00;;;;;;;;;;;17.10;99.90;;;;;;5009459;28;20079;-70
2022/05/02 07:35:26;;;;;;;;;;;17.20;99.90;;;;;;5007213;28;19909;-69
2022/05/02 07:37:52;;;;;;;;;;;17.00;99.90;;;;;;5001972;28;19925;-70
2022/05/02 07:40:20;;;;;;;;;;;17.10;99.90;;;;;;5005531;28;19920;-70
2022/05/02 07:42:46;;;;;;;;;;;17.20;99.90;;;;;;5007189;28;20292;-70
2022/05/02 07:45:14;;;;;;;;;;;17.20;99.90;;;;;;5013275;28;19905;-68
2022/05/02 07:47:43;;;;;;;;;;;17.20;99.90;;;;;;5010851;28;19960;-70
2022/05/02 07:50:10;;;;;;;;;;;17.30;99.90;;;;;;5014973;28;19909;-69
2022/05/02 07:52:39;;;;;;;;;;;17.20;99.90;;;;;;5014525;28;19952;-71
2022/05/02 07:55:05;;;;;;;;;;;17.30;99.90;;;;;;5014109;28;19906;-70
2022/05/02 07:57:36;;;;;;;;;;;17.40;99.90;;;;;;5011047;28;19909;-71
2022/05/02 08:00:03;;;;;;;;;;;17.40;99.90;;;;;;5011314;28;20421;-75
2022/05/02 08:02:30;;;;;;;;;;;17.50;99.90;;;;;;5010493;28;20000;-71
2022/05/02 08:04:57;;;;;;;;;;;17.50;99.90;;;;;;5007618;28;19981;-69
2022/05/02 08:07:33;;;;;;;;;;;17.40;99.90;;;;;;5011227;28;19910;-68
2022/05/02 08:10:05;;;;;;;;;;;17.60;99.90;;;;;;5005161;28;19914;-67
2022/05/02 08:12:43;;;;;;;;;;;17.50;99.90;;;;;;5003637;28;19913;-68
2022/05/02 08:15:32;;;;;;;;;;;17.60;99.90;;;;;;5003700;28;20004;-70
2022/05/02 08:18:16;;;;;;;;;;;17.60;99.90;;;;;;5000668;28;19924;-69
2022/05/02 08:20:44;;;;;;;;;;;17.70;99.90;;;;;;5005540;28;20281;-67
2022/05/02 08:28:57;;;;;;;;;;;17.90;99.90;;;;;;5012777;28;19967;-70
2022/05/02 08:31:49;;;;;;;;;;;18.00;99.90;;;;;;5012039;28;19932;-71
2022/05/02 08:34:20;;;;;;;;;;;18.00;99.90;;;;;;5009419;28;19975;-71
2022/05/02 08:37:04;;;;;;;;;;;18.00;99.90;;;;;;5009003;28;19921;-70
2022/05/02 08:39:59;;;;;;;;;;;18.00;99.90;;;;;;5013412;28;19910;-70
2022/05/02 08:42:34;;;;;;;;;;;18.20;99.90;;;;;;5015603;28;19913;-72
2022/05/02 08:45:18;;;;;;;;;;;18.50;99.90;;;;;;5010321;28;19928;-71
2022/05/02 08:47:44;;;;;;;;;;;18.60;99.90;;;;;;5008724;28;19917;-72
2022/05/02 08:50:19;;;;;;;;;;;18.70;99.90;;;;;;5013857;28;19910;-71
2022/05/02 08:53:03;;;;;;;;;;;18.50;99.90;;;;;;5004175;28;19944;-73
2022/05/02 08:55:31;;;;;;;;;;;18.40;99.90;;;;;;5006186;28;20076;-70
2022/05/02 08:58:00;;;;;;;;;;;18.40;99.90;;;;;;5002102;28;19913;-71
2022/05/02 09:00:34;;;;;;;;;;;18.30;99.90;;;;;;5010705;28;19909;-72
2022/05/02 09:03:26;;;;;;;;;;;18.50;99.90;;;;;;5016727;28;19909;-70
2022/05/02 09:06:07;;;;;;;;;;;18.40;99.90;;;;;;5016661;28;19991;-72
2022/05/02 09:08:41;;;;;;;;;;;18.20;99.90;;;;;;5014132;28;19912;-72
2022/05/02 09:11:07;;;;;;;;;;;18.00;99.90;;;;;;5009376;28;19987;-72
2022/05/02 09:13:42;;;;;;;;;;;18.20;99.90;;;;;;5010097;28;20435;-71
2022/05/02 09:16:26;;;;;;;;;;;18.30;99.90;;;;;;5013965;28;19916;-71
2022/05/02 09:18:52;;;;;;;;;;;18.40;99.90;;;;;;5011969;28;20338;-71
2022/05/02 09:21:21;;;;;;;;;;;18.40;99.90;;;;;;5012753;28;19919;-72
2022/05/02 09:24:06;;;;;;;;;;;18.50;99.90;;;;;;5011261;28;20365;-71
2022/05/02 09:26:42;;;;;;;;;;;18.60;99.90;;;;;;5011630;28;19905;-72
2022/05/02 09:29:07;;;;;;;;;;;18.80;99.90;;;;;;5010698;28;19916;-72
2022/05/02 09:31:58;;;;;;;;;;;18.90;99.90;;;;;;5012311;28;20281;-71
2022/05/02 09:34:43;;;;;;;;;;;18.80;99.90;;;;;;5011104;28;20007;-71
2022/05/02 09:37:20;;;;;;;;;;;18.60;99.90;;;;;;5001013;28;20385;-71
2022/05/02 09:40:03;;;;;;;;;;;18.30;99.90;;;;;;5009740;28;19924;-70
2022/05/02 09:42:47;;;;;;;;;;;18.40;99.90;;;;;;5007128;28;20487;-70
2022/05/02 09:51:09;;;;;;;;;;;18.70;99.90;;;;;;5013653;28;19936;-70
2022/05/02 09:53:34;;;;;;;;;;;18.60;99.90;;;;;;5017640;28;19905;-71
2022/05/02 09:58:47;;;;;;;;;;;18.60;99.90;;;;;;5018783;28;19964;-69
2022/05/02 10:01:16;;;;;;;;;;;18.60;99.90;;;;;;5022777;28;19943;-70
2022/05/02 10:03:47;;;;;;;;;;;18.60;99.90;;;;;;5016440;28;19916;-70
2022/05/02 10:06:22;;;;;;;;;;;18.80;99.90;;;;;;5016852;28;19920;-69
2022/05/02 10:09:03;;;;;;;;;;;18.80;99.90;;;;;;5012730;28;19905;-70
2022/05/02 10:11:47;;;;;;;;;;;19.00;99.90;;;;;;5012665;28;19913;-72
2022/05/02 10:14:39;;;;;;;;;;;19.00;99.90;;;;;;5009352;28;19910;-68
2022/05/02 10:17:10;;;;;;;;;;;18.80;99.90;;;;;;5005037;28;20293;-68
2022/05/02 10:19:35;;;;;;;;;;;18.90;99.90;;;;;;5008990;28;19913;-72
2022/05/02 10:22:04;;;;;;;;;;;19.10;99.90;;;;;;5013250;28;19909;-72
2022/05/02 10:24:36;;;;;;;;;;;19.10;99.90;;;;;;5008215;28;19910;-73
2022/05/02 10:27:20;;;;;;;;;;;19.20;99.90;;;;;;5008929;28;19997;-70
2022/05/02 10:30:02;;;;;;;;;;;19.30;99.90;;;;;;5013560;28;19909;-71
2022/05/02 10:32:31;;;;;;;;;;;19.30;99.90;;;;;;5009912;28;19914;-70
2022/05/02 10:34:59;;;;;;;;;;;19.40;99.90;;;;;;5013809;28;19970;-71
2022/05/02 10:37:31;;;;;;;;;;;19.30;99.90;;;;;;5013679;28;19917;-70
2022/05/02 10:40:08;;;;;;;;;;;19.40;99.90;;;;;;5014466;28;19961;-70
2022/05/02 10:42:34;;;;;;;;;;;19.70;99.90;;;;;;5015156;28;20377;-71
2022/05/02 10:45:02;;;;;;;;;;;19.80;99.90;;;;;;5018760;28;19917;-69
2022/05/02 10:47:30;;;;;;;;;;;20.00;99.90;;;;;;5010166;28;19945;-72
2022/05/02 10:50:03;;;;;;;;;;;19.90;99.90;;;;;;5018775;28;19989;-69
2022/05/02 10:52:44;;;;;;;;;;;19.80;99.90;;;;;;5020401;28;20539;-70
2022/05/02 10:55:29;;;;;;;;;;;19.70;99.90;;;;;;5021087;28;19913;-71
2022/05/02 10:57:59;;;;;;;;;;;19.60;99.90;;;;;;5018544;28;19948;-69
2022/05/02 11:00:25;;;;;;;;;;;19.60;99.90;;;;;;5013538;28;19958;-72
2022/05/02 11:03:10;;;;;;;;;;;19.60;99.90;;;;;;5014180;28;20406;-71
2022/05/02 11:05:44;;;;;;;;;;;19.80;99.90;;;;;;5007107;28;19996;-70
2022/05/02 11:08:25;;;;;;;;;;;19.80;99.90;;;;;;5007420;28;19946;-71
2022/05/02 11:10:58;;;;;;;;;;;19.70;99.90;;;;;;5008169;28;19909;-72
2022/05/02 11:13:28;;;;;;;;;;;20.00;99.90;;;;;;5011879;28;19931;-68
2022/05/02 11:15:54;;;;;;;;;;;20.10;99.90;;;;;;5014842;28;20381;-69
2022/05/02 11:21:52;;;;;;;;;;;20.00;99.90;;;;;;5015769;28;20007;-70
2022/05/02 11:24:36;;;;;;;;;;;20.00;99.90;;;;;;5015952;28;19905;-70
2022/05/02 11:27:01;;;;;;;;;;;20.10;99.90;;;;;;5013345;28;19909;-71
2022/05/02 11:29:36;;;;;;;;;;;20.50;99.90;;;;;;5014629;28;19905;-72
2022/05/02 11:32:03;;;;;;;;;;;20.60;99.90;;;;;;4991783;28;19916;-70
2022/05/02 11:34:47;;;;;;;;;;;20.70;99.90;;;;;;5003275;28;19992;-70
2022/05/02 11:37:24;;;;;;;;;;;20.70;99.90;;;;;;5007782;28;19916;-71
2022/05/02 11:39:56;;;;;;;;;;;20.70;99.90;;;;;;5008549;28;19913;-71
2022/05/02 11:42:22;;;;;;;;;;;20.80;99.90;;;;;;5012758;28;19921;-71
2022/05/02 11:44:59;;;;;;;;;;;21.10;99.90;;;;;;5011969;28;19910;-71
2022/05/02 11:47:33;;;;;;;;;;;21.20;99.90;;;;;;4999915;28;19914;-71
2022/05/02 11:50:10;;;;;;;;;;;20.90;99.90;;;;;;4992307;28;19913;-71
2022/05/02 11:52:37;;;;;;;;;;;20.90;99.90;;;;;;4993592;28;19906;-70
2022/05/02 11:55:04;;;;;;;;;;;20.90;99.90;;;;;;5007550;28;19916;-71
2022/05/02 11:57:38;;;;;;;;;;;21.10;99.90;;;;;;5012885;28;19906;-70
2022/05/02 12:00:05;;;;;;;;;;;21.10;99.90;;;;;;5010296;28;19905;-73
2022/05/02 12:02:34;;;;;;;;;;;21.10;99.90;;;;;;5011189;28;20365;-74
2022/05/02 12:05:03;;;;;;;;;;;21.10;99.90;;;;;;5006960;28;19913;-73
2022/05/02 12:07:31;;;;;;;;;;;21.20;99.90;;;;;;5009263;28;19920;-73
2022/05/02 12:10:02;;;;;;;;;;;21.30;99.90;;;;;;5007551;28;20441;-73
2022/05/02 12:12:28;;;;;;;;;;;21.20;99.90;;;;;;5018664;28;19956;-73
2022/05/02 12:15:01;;;;;;;;;;;21.10;99.90;;;;;;4991579;28;19906;-73
2022/05/02 12:17:26;;;;;;;;;;;21.00;99.90;;;;;;4991797;28;19996;-73
2022/05/02 12:19:52;;;;;;;;;;;20.70;99.90;;;;;;5004071;28;20012;-71
2022/05/02 12:22:22;;;;;;;;;;;20.70;99.90;;;;;;5010520;28;19926;-76
2022/05/02 12:24:49;;;;;;;;;;;20.90;99.90;;;;;;5005335;28;19909;-72
2022/05/02 12:27:16;;;;;;;;;;;20.90;99.90;;;;;;5011051;28;20385;-73
2022/05/02 12:29:43;;;;;;;;;;;20.90;99.90;;;;;;5014314;28;19905;-72
2022/05/02 12:32:09;;;;;;;;;;;21.20;99.90;;;;;;5010378;28;19917;-74
2022/05/02 12:34:42;;;;;;;;;;;21.40;99.90;;;;;;5009061;28;19936;-74
2022/05/02 12:37:23;;;;;;;;;;;21.40;99.90;;;;;;5018485;28;19909;-73
2022/05/02 12:40:07;;;;;;;;;;;21.60;99.90;;;;;;5012368;28;20297;-73
2022/05/02 12:42:51;;;;;;;;;;;21.80;99.90;;;;;;5009195;28;19966;-73
2022/05/02 12:45:18;;;;;;;;;;;22.20;99.90;;;;;;5009217;28;20419;-72
2022/05/02 12:47:50;;;;;;;;;;;22.30;99.90;;;;;;5012088;28;20297;-73
2022/05/02 12:50:25;;;;;;;;;;;22.10;99.90;;;;;;5013039;28;19917;-75
2022/05/02 12:52:54;;;;;;;;;;;21.90;99.90;;;;;;5014967;28;19905;-74
2022/05/02 12:55:34;;;;;;;;;;;22.20;99.90;;;;;;5010075;28;20301;-73
2022/05/02 13:00:46;;;;;;;;;;;21.60;99.90;;;;;;5018204;28;19936;-72
2022/05/02 13:03:15;;;;;;;;;;;21.70;99.90;;;;;;5013417;28;20503;-72
2022/05/02 13:05:49;;;;;;;;;;;21.90;99.90;;;;;;5013575;28;19905;-71
2022/05/02 13:08:19;;;;;;;;;;;22.30;99.90;;;;;;5021097;28;19913;-72
2022/05/02 13:10:46;;;;;;;;;;;22.60;99.90;;;;;;5008211;28;19916;-73
2022/05/02 13:13:13;;;;;;;;;;;22.20;99.90;;;;;;5011046;28;20008;-72
2022/05/02 13:15:38;;;;;;;;;;;21.90;99.90;;;;;;5011663;28;19905;-72
2022/05/02 13:18:25;;;;;;;;;;;21.70;99.90;;;;;;5013806;28;19932;-73
2022/05/02 13:20:58;;;;;;;;;;;22.00;99.90;;;;;;5015092;28;19909;-71
2022/05/02 13:23:34;;;;;;;;;;;22.10;99.90;;;;;;5015102;28;20012;-71
2022/05/02 13:26:15;;;;;;;;;;;22.30;99.90;;;;;;5013925;28;19910;-72
2022/05/02 13:28:52;;;;;;;;;;;22.20;99.90;;;;;;5015316;28;19906;-71
2022/05/02 13:31:24;;;;;;;;;;;22.10;99.90;;;;;;5007738;28;20051;-71
2022/05/02 13:33:51;;;;;;;;;;;22.00;99.90;;;;;;5011284;28;19913;-72
2022/05/02 13:36:17;;;;;;;;;;;22.00;99.90;;;;;;5008935;28;19909;-72
2022/05/02 13:38:52;;;;;;;;;;;22.10;99.90;;;;;;5011134;28;20306;-71
2022/05/02 13:41:20;;;;;;;;;;;21.90;99.90;;;;;;5014162;28;19920;-73
2022/05/02 13:44:07;;;;;;;;;;;21.60;99.90;;;;;;5010545;28;19964;-71
2022/05/02 13:46:42;;;;;;;;;;;21.70;99.90;;;;;;5008573;28;19909;-73
2022/05/02 13:49:17;;;;;;;;;;;21.80;99.90;;;;;;5004247;28;20380;-71
2022/05/02 13:51:52;;;;;;;;;;;22.00;99.90;;;;;;5007689;28;19963;-74
2022/05/02 13:54:40;;;;;;;;;;;22.20;99.90;;;;;;5013523;28;19906;-72
2022/05/02 13:57:17;;;;;;;;;;;22.40;99.90;;;;;;5012326;28;19917;-73
2022/05/02 13:59:49;;;;;;;;;;;22.40;99.90;;;;;;5011155;28;19905;-73
2022/05/02 14:02:27;;;;;;;;;;;22.10;99.90;;;;;;5011979;28;19909;-72
2022/05/02 14:04:57;;;;;;;;;;;22.00;99.90;;;;;;5011576;28;19948;-72
2022/05/02 14:07:24;;;;;;;;;;;22.00;99.90;;;;;;5012237;28;19945;-72
2022/05/02 14:09:51;;;;;;;;;;;21.80;99.90;;;;;;5011597;28;20288;-72
2022/05/02 14:12:23;;;;;;;;;;;21.80;99.90;;;;;;5009423;28;20428;-71
2022/05/02 14:14:56;;;;;;;;;;;22.00;99.90;;;;;;5009839;28;19959;-73
2022/05/02 14:17:31;;;;;;;;;;;22.10;99.90;;;;;;5011489;28;20269;-71
2022/05/02 14:20:23;;;;;;;;;;;21.90;99.90;;;;;;5007607;28;19909;-74
2022/05/02 14:22:58;;;;;;;;;;;21.80;99.90;;;;;;5009201;28;20357;-71
2022/05/02 14:25:43;;;;;;;;;;;21.80;99.90;;;;;;5008232;28;20281;-71
2022/05/02 14:28:09;;;;;;;;;;;21.70;99.90;;;;;;5024019;28;19921;-73
2022/05/02 14:30:38;;;;;;;;;;;21.60;99.90;;;;;;5013437;28;19906;-71
2022/05/02 14:33:27;;;;;;;;;;;21.80;99.90;;;;;;5002426;28;20033;-72
2022/05/02 14:35:55;;;;;;;;;;;21.80;99.90;;;;;;5010891;28;20021;-72
2022/05/02 14:38:20;;;;;;;;;;;21.80;99.90;;;;;;4999352;28;19919;-72
2022/05/02 14:40:47;;;;;;;;;;;21.90;99.90;;;;;;5009399;28;19921;-72
2022/05/02 14:43:14;;;;;;;;;;;22.00;99.90;;;;;;5000141;28;19906;-72
2022/05/02 14:45:41;;;;;;;;;;;22.00;99.90;;;;;;5007136;28;20000;-71
2022/05/02 14:48:08;;;;;;;;;;;21.90;99.90;;;;;;5009165;28;19995;-71
2022/05/02 14:50:34;;;;;;;;;;;21.90;99.90;;;;;;5010142;28;20277;-71
2022/05/02 14:53:09;;;;;;;;;;;21.80;99.90;;;;;;5012237;28;20444;-71
2022/05/02 14:55:40;;;;;;;;;;;21.70;99.90;;;;;;5011969;28;19912;-71
2022/05/02 14:58:06;;;;;;;;;;;21.60;99.90;;;;;;5008969;28;20258;-71
2022/05/02 15:00:33;;;;;;;;;;;21.60;99.90;;;;;;5024294;28;20000;-73
2022/05/02 15:02:59;;;;;;;;;;;21.50;99.90;;;;;;5010247;28;20377;-73
2022/05/02 15:05:28;;;;;;;;;;;21.50;99.90;;;;;;5010910;28;20334;-73